createdAt,value
2023-03-14T00:00:03.690Z,107.15
2023-03-14T00:01:03.649Z,105.88
2023-03-14T00:02:03.620Z,106.24
2023-03-14T00:03:03.619Z,106.25
2023-03-14T00:04:03.573Z,105.63
2023-03-14T00:05:03.576Z,106.31
2023-03-14T00:06:03.513Z,102.33
2023-03-14T00:07:03.494Z,102.30
2023-03-14T00:08:03.477Z,103.64
2023-03-14T00:09:03.452Z,105.84
2023-03-14T00:10:03.429Z,103.74
2023-03-14T00:11:03.399Z,104.98
2023-03-14T00:12:03.389Z,105.11
2023-03-14T00:13:03.360Z,106.12
2023-03-14T00:14:03.326Z,106.16
2023-03-14T00:15:03.308Z,105.78
2023-03-14T00:16:03.370Z,107.21
2023-03-14T00:17:03.244Z,107.51
2023-03-14T00:18:03.223Z,106.83
2023-03-14T00:19:03.203Z,107.02
2023-03-14T00:20:03.175Z,107.55
2023-03-14T00:21:03.160Z,108.09
2023-03-14T00:22:03.128Z,103.94
2023-03-14T00:23:03.110Z,106.15
2023-03-14T00:24:03.096Z,106.00
2023-03-14T00:25:03.073Z,102.21
2023-03-14T00:26:03.049Z,103.92
2023-03-14T00:27:03.034Z,104.29
2023-03-14T00:28:02.996Z,105.75
2023-03-14T00:29:03.013Z,106.84
2023-03-14T00:30:02.974Z,105.96
2023-03-14T00:31:03.019Z,103.34
2023-03-14T00:32:02.943Z,103.65
2023-03-14T00:33:02.944Z,102.23
2023-03-14T00:34:02.905Z,104.15
2023-03-14T00:35:02.900Z,104.18
2023-03-14T00:36:02.959Z,103.58
2023-03-14T00:37:02.847Z,100.40
2023-03-14T00:38:02.816Z,100.99
2023-03-14T00:39:02.824Z,103.58
2023-03-14T00:40:02.788Z,104.79
2023-03-14T00:41:02.796Z,105.76
2023-03-14T00:42:02.730Z,105.89
2023-03-14T00:43:02.761Z,105.97
2023-03-14T00:44:02.724Z,103.97
2023-03-14T00:45:02.687Z,102.21
2023-03-14T00:46:02.669Z,103.54
2023-03-14T00:47:02.666Z,103.53
2023-03-14T00:48:02.624Z,105.00
2023-03-14T00:49:02.596Z,104.56
2023-03-14T00:50:02.589Z,104.86
2023-03-14T00:51:02.573Z,105.21
2023-03-14T00:52:02.547Z,105.95
2023-03-14T00:53:02.523Z,104.93
2023-03-14T00:56:02.467Z,103.30
2023-03-14T01:00:02.391Z,104.99
2023-03-14T01:01:02.374Z,105.86
2023-03-14T01:03:02.356Z,105.96
2023-03-14T01:06:02.266Z,102.92
2023-03-14T01:07:02.270Z,103.92
2023-03-14T01:08:02.223Z,104.30
2023-03-14T01:09:02.213Z,103.41
2023-03-14T01:10:02.209Z,103.03
2023-03-14T01:13:02.168Z,102.00
2023-03-14T01:15:02.098Z,104.97
2023-03-14T01:16:02.134Z,105.89
2023-03-14T01:17:02.173Z,105.80
2023-03-14T01:18:02.114Z,106.09
2023-03-14T01:19:02.011Z,105.98
2023-03-14T01:20:02.180Z,107.06
2023-03-14T01:21:01.979Z,105.46
2023-03-14T01:22:01.933Z,105.54
2023-03-14T01:23:01.937Z,105.76
2023-03-14T01:24:01.924Z,106.04
2023-03-14T01:25:01.876Z,106.59
2023-03-14T01:26:01.896Z,105.32
2023-03-14T01:27:01.864Z,103.21
2023-03-14T01:28:01.859Z,103.70
2023-03-14T01:29:01.836Z,105.60
2023-03-14T01:30:01.843Z,106.81
2023-03-14T01:32:01.858Z,108.10
2023-03-14T01:33:01.814Z,107.18
2023-03-14T01:34:01.777Z,105.65
2023-03-14T06:21:57.195Z,121.37
2023-03-14T06:22:57.145Z,120.47
2023-03-14T06:23:57.105Z,119.34
2023-03-14T06:24:57.092Z,119.19
2023-03-14T06:25:57.051Z,120.72
2023-03-14T06:26:57.026Z,120.23
2023-03-14T06:27:57.108Z,120.68
2023-03-14T06:28:56.986Z,120.92
2023-03-14T06:29:56.987Z,121.14
2023-03-14T06:30:57.156Z,120.22
2023-03-14T06:31:56.921Z,121.35
2023-03-14T06:32:56.950Z,120.87
2023-03-14T06:33:56.858Z,120.81
2023-03-14T06:34:56.842Z,122.72
2023-03-14T06:35:56.821Z,123.23
2023-03-14T06:36:56.807Z,124.56
2023-03-14T06:37:56.766Z,125.67
2023-03-14T06:38:56.748Z,129.17
2023-03-14T06:39:56.731Z,136.36
2023-03-14T06:40:56.682Z,136.93
2023-03-14T06:41:56.666Z,137.80
2023-03-14T06:42:56.634Z,139.12
2023-03-14T06:43:56.831Z,139.31
2023-03-14T06:44:56.581Z,146.19
2023-03-14T06:45:56.611Z,148.11
2023-03-14T06:46:56.628Z,148.42
2023-03-14T06:47:56.524Z,148.87
2023-03-14T06:48:56.496Z,150.72
2023-03-14T06:49:56.480Z,151.34
2023-03-14T06:50:56.596Z,151.04
2023-03-14T06:51:56.451Z,149.65
2023-03-14T06:52:56.445Z,151.90
2023-03-14T06:53:56.392Z,153.35
2023-03-14T06:54:56.321Z,153.80
2023-03-14T06:55:56.299Z,154.62
2023-03-14T06:56:56.272Z,157.68
2023-03-14T06:57:56.252Z,158.81
2023-03-14T06:58:56.240Z,157.88
2023-03-14T06:59:56.245Z,156.45
2023-03-14T07:00:56.274Z,156.46
2023-03-14T07:01:56.222Z,155.33
2023-03-14T07:02:56.096Z,154.15
2023-03-14T07:03:56.057Z,154.24
2023-03-14T07:04:56.788Z,155.05
2023-03-14T07:05:56.048Z,154.37
2023-03-14T07:06:56.018Z,155.31
2023-03-14T07:07:55.973Z,154.57
2023-03-14T07:08:56.004Z,152.89
2023-03-14T07:09:56.068Z,154.16
2023-03-14T07:10:55.829Z,154.26
2023-03-14T07:11:55.841Z,153.12
2023-03-14T07:12:55.797Z,153.45
2023-03-14T07:13:55.767Z,152.86
2023-03-14T07:14:57.622Z,152.96
2023-03-14T07:15:55.750Z,153.13
2023-03-14T07:16:55.696Z,153.33
2023-03-14T07:17:55.662Z,154.60
2023-03-14T07:18:55.634Z,155.18
2023-03-14T07:19:55.647Z,160.20
2023-03-14T07:20:55.600Z,165.74
2023-03-14T07:21:55.624Z,163.05
2023-03-14T07:22:55.650Z,163.91
2023-03-14T07:23:55.512Z,173.64
2023-03-14T07:24:55.482Z,184.04
2023-03-14T07:25:55.446Z,179.75
2023-03-14T07:26:55.561Z,177.15
2023-03-14T07:27:55.408Z,173.61
2023-03-14T07:28:55.416Z,172.45
2023-03-14T07:29:55.416Z,172.22
2023-03-14T07:30:55.361Z,170.81
2023-03-14T07:31:55.321Z,169.65
2023-03-14T07:32:55.352Z,171.01
2023-03-14T07:33:55.246Z,170.32
2023-03-14T07:34:55.224Z,170.67
2023-03-14T07:35:55.223Z,172.11
2023-03-14T07:36:55.179Z,172.84
2023-03-14T07:37:55.160Z,175.50
2023-03-14T07:38:55.128Z,183.99
2023-03-14T07:39:55.056Z,187.56
2023-03-14T07:40:55.064Z,186.78
2023-03-14T07:41:55.027Z,185.87
2023-03-14T07:42:55.050Z,185.89
2023-03-14T07:43:55.003Z,185.68
2023-03-14T07:44:55.048Z,185.77
2023-03-14T07:45:59.077Z,187.62
2023-03-14T07:46:54.915Z,187.69
2023-03-14T07:47:54.843Z,187.95
2023-03-14T07:48:54.789Z,188.78
2023-03-14T07:49:54.766Z,190.17
2023-03-14T07:50:54.721Z,192.23
2023-03-14T07:51:54.715Z,192.54
2023-03-14T07:52:54.669Z,192.72
2023-03-14T07:53:54.642Z,192.86
2023-03-14T07:54:54.594Z,193.05
2023-03-14T07:55:54.563Z,193.04
2023-03-14T07:56:54.537Z,193.68
2023-03-14T07:57:54.495Z,194.75
2023-03-14T07:58:54.457Z,195.28
2023-03-14T07:59:54.460Z,196.07
2023-03-14T08:00:54.399Z,195.49
2023-03-14T08:01:54.385Z,195.51
2023-03-14T08:02:54.442Z,195.80
2023-03-14T08:03:54.451Z,195.74
2023-03-14T08:04:54.333Z,199.21
2023-03-14T08:05:54.255Z,200.95
2023-03-14T08:06:54.223Z,202.98
2023-03-14T08:07:54.216Z,202.70
2023-03-14T08:08:54.257Z,202.44
2023-03-14T08:09:54.168Z,202.44
2023-03-14T08:10:54.167Z,202.40
2023-03-14T08:11:54.090Z,201.43
2023-03-14T08:12:54.110Z,201.64
2023-03-14T08:13:54.132Z,201.52
2023-03-14T08:14:54.013Z,201.35
2023-03-14T08:15:54.431Z,201.59
2023-03-14T08:16:54.230Z,201.86
2023-03-14T08:17:53.912Z,202.64
2023-03-14T08:18:53.987Z,204.04
2023-03-14T08:19:53.982Z,204.85
2023-03-14T08:20:53.836Z,203.07
2023-03-14T08:21:53.908Z,203.41
2023-03-14T08:22:53.801Z,202.16
2023-03-14T08:23:53.877Z,201.21
2023-03-14T08:24:53.752Z,201.92
2023-03-14T08:25:53.710Z,201.19
2023-03-14T08:26:53.679Z,201.00
2023-03-14T08:27:53.787Z,199.95
2023-03-14T08:28:54.088Z,199.49
2023-03-14T08:29:53.610Z,200.36
2023-03-14T08:30:53.637Z,200.79
2023-03-14T08:31:53.614Z,200.29
2023-03-14T08:32:54.460Z,200.48
2023-03-14T08:33:53.450Z,200.31
2023-03-14T08:34:53.557Z,200.70
2023-03-14T08:35:53.426Z,200.18
2023-03-14T08:36:53.387Z,199.40
2023-03-14T08:37:53.320Z,199.12
2023-03-14T08:38:53.482Z,196.23
2023-03-14T08:39:53.264Z,194.61
2023-03-14T08:40:53.235Z,194.24
2023-03-14T08:41:53.184Z,195.30
2023-03-14T08:42:53.140Z,194.74
2023-03-14T08:43:53.142Z,192.50
2023-03-14T08:44:53.134Z,191.81
2023-03-14T08:45:53.100Z,191.21
2023-03-14T08:46:53.124Z,190.59
2023-03-14T08:47:53.025Z,190.28
2023-03-14T08:48:52.979Z,188.28
2023-03-14T08:49:53.124Z,188.39
2023-03-14T08:50:52.884Z,186.32
2023-03-14T08:51:52.841Z,186.57
2023-03-14T08:52:53.853Z,185.94
2023-03-14T08:53:52.813Z,185.15
2023-03-14T08:54:52.713Z,184.45
2023-03-14T08:55:52.690Z,182.41
2023-03-14T08:56:52.639Z,181.42
2023-03-14T08:57:52.625Z,181.71
2023-03-14T08:58:52.845Z,182.52
2023-03-14T08:59:52.541Z,182.57
2023-03-14T09:00:52.591Z,182.13
2023-03-14T09:01:52.730Z,181.08
2023-03-14T09:02:52.574Z,179.04
2023-03-14T09:03:52.481Z,179.37
2023-03-14T09:04:52.314Z,178.67
2023-03-14T09:05:52.379Z,178.94
2023-03-14T09:06:52.264Z,177.02
2023-03-14T09:07:52.799Z,175.40
2023-03-14T09:08:52.328Z,173.29
2023-03-14T09:09:52.199Z,173.49
2023-03-14T09:10:52.299Z,172.23
2023-03-14T09:11:52.054Z,170.91
2023-03-14T09:12:51.993Z,169.09
2023-03-14T09:13:51.966Z,170.13
2023-03-14T09:14:51.952Z,168.29
2023-03-14T09:15:51.897Z,166.54
2023-03-14T09:16:51.923Z,166.58
2023-03-14T09:17:51.826Z,165.55
2023-03-14T09:18:51.800Z,165.37
2023-03-14T09:19:51.768Z,165.21
2023-03-14T09:20:51.735Z,164.71
2023-03-14T09:21:51.663Z,165.31
2023-03-14T09:22:51.643Z,166.40
2023-03-14T09:23:51.722Z,165.20
2023-03-14T09:24:51.586Z,165.59
2023-03-14T09:25:51.539Z,164.22
2023-03-14T09:26:51.489Z,164.95
2023-03-14T09:27:51.487Z,166.10
2023-03-14T09:28:51.418Z,164.45
2023-03-14T09:29:51.371Z,164.43
2023-03-14T09:30:51.448Z,163.28
2023-03-14T09:31:51.440Z,161.12
2023-03-14T09:32:51.304Z,162.52
2023-03-14T09:33:51.205Z,161.10
2023-03-14T09:34:51.227Z,162.95
2023-03-14T09:35:51.199Z,162.39
2023-03-14T09:36:51.113Z,162.42
2023-03-14T09:37:51.122Z,162.23
2023-03-14T09:38:51.109Z,161.41
2023-03-14T09:39:51.009Z,161.18
2023-03-14T09:40:51.014Z,160.18
2023-03-14T09:41:50.913Z,147.45
2023-03-14T09:42:50.914Z,107.93
2023-03-14T09:43:50.881Z,81.12
2023-03-14T09:44:50.881Z,64.94
2023-03-14T09:45:50.981Z,62.91
2023-03-14T09:46:50.820Z,75.75
2023-03-14T09:47:59.047Z,79.21
2023-03-14T09:48:51.779Z,78.45
2023-03-14T09:49:50.878Z,71.35
2023-03-14T09:50:50.731Z,69.74
2023-03-14T09:51:50.683Z,63.48
2023-03-14T09:52:50.720Z,60.65
2023-03-14T09:53:50.636Z,56.43
2023-03-14T09:54:50.653Z,48.64
2023-03-14T09:55:50.677Z,47.02
2023-03-14T09:56:50.600Z,40.59
2023-03-14T09:57:50.556Z,35.30
2023-03-14T09:58:50.555Z,32.62
2023-03-14T09:59:50.527Z,31.85
2023-03-14T10:00:50.579Z,34.18
2023-03-14T10:01:50.668Z,38.36
2023-03-14T10:02:50.511Z,37.62
2023-03-14T10:03:50.494Z,37.92
2023-03-14T10:04:50.498Z,34.58
2023-03-14T10:05:50.477Z,34.12
2023-03-14T10:06:50.431Z,34.78
2023-03-14T10:07:50.430Z,35.88
2023-03-14T10:08:50.430Z,31.41
2023-03-14T10:09:50.849Z,29.50
2023-03-14T10:10:50.396Z,34.13
2023-03-14T10:11:50.465Z,44.73
2023-03-14T10:12:50.394Z,48.60
2023-03-14T10:13:50.342Z,48.10
2023-03-14T10:14:50.343Z,51.33
2023-03-14T10:16:50.360Z,45.55
2023-03-14T10:17:50.346Z,42.31
2023-03-14T10:18:50.282Z,36.66
2023-03-14T10:19:50.280Z,31.19
2023-03-14T10:20:50.275Z,30.86
2023-03-14T13:40:43.847Z,121.86
2023-03-14T13:41:43.812Z,122.59
2023-03-14T13:42:43.826Z,122.27
2023-03-14T13:43:43.706Z,123.14
2023-03-14T13:44:43.660Z,123.13
2023-03-14T13:45:43.632Z,122.46
2023-03-14T13:46:43.614Z,123.00
2023-03-14T13:47:43.548Z,123.25
2023-03-14T13:48:43.523Z,123.99
2023-03-14T13:49:43.494Z,124.25
2023-03-14T13:50:44.274Z,122.45
2023-03-14T13:51:43.391Z,123.31
2023-03-14T13:52:43.361Z,122.72
2023-03-14T13:53:43.325Z,122.00
2023-03-14T13:54:43.293Z,123.14
2023-03-14T13:55:43.237Z,123.48
2023-03-14T13:56:43.225Z,124.91
2023-03-14T13:57:43.192Z,123.49
2023-03-14T13:58:43.201Z,122.60
2023-03-14T13:59:43.131Z,122.78
2023-03-14T14:00:43.094Z,123.72
2023-03-14T14:01:43.110Z,123.18
2023-03-14T14:02:42.971Z,123.56
2023-03-14T14:03:42.953Z,122.46
2023-03-14T14:04:43.066Z,122.99
2023-03-14T14:05:42.872Z,123.86
2023-03-14T14:06:42.836Z,123.60
2023-03-14T14:07:42.787Z,124.05
2023-03-14T14:08:42.757Z,124.10
2023-03-14T14:09:42.798Z,124.50
2023-03-14T14:10:43.425Z,125.48
2023-03-14T14:11:50.870Z,125.46
2023-03-14T14:12:43.632Z,125.48
2023-03-14T14:13:42.596Z,125.46
2023-03-14T14:14:42.590Z,125.01
2023-03-14T14:15:42.554Z,122.69
2023-03-14T14:16:43.434Z,123.88
2023-03-14T14:17:42.736Z,124.19
2023-03-14T14:18:42.924Z,124.17
2023-03-14T14:19:42.486Z,122.38
2023-03-14T14:20:42.458Z,122.53
2023-03-14T14:21:42.411Z,122.36
2023-03-14T14:22:42.437Z,120.52
2023-03-14T14:23:42.252Z,120.96
2023-03-14T14:24:42.225Z,120.63
2023-03-14T14:25:42.184Z,120.70
2023-03-14T14:26:42.186Z,121.04
2023-03-14T14:27:42.163Z,121.02
2023-03-14T14:28:42.074Z,121.22
2023-03-14T14:29:42.069Z,119.67
2023-03-14T14:30:42.023Z,119.41
2023-03-14T14:31:42.042Z,117.25
2023-03-14T14:32:41.978Z,118.83
2023-03-14T14:33:41.924Z,119.39
2023-03-14T14:34:41.903Z,120.07
2023-03-14T14:35:41.853Z,120.59
2023-03-14T14:36:41.825Z,120.66
2023-03-14T14:37:41.801Z,120.81
2023-03-14T14:38:41.753Z,121.23
2023-03-14T14:39:41.728Z,121.25
2023-03-14T15:07:41.534Z,117.62
2023-03-14T15:08:41.588Z,117.52
2023-03-14T15:09:41.600Z,116.85
2023-03-14T15:10:41.761Z,115.41
2023-03-14T15:11:41.720Z,114.78
2023-03-14T15:12:41.744Z,114.28
2023-03-14T15:13:41.781Z,116.63
2023-03-14T15:14:41.823Z,116.56
2023-03-14T15:15:41.862Z,116.07
2023-03-14T15:16:42.016Z,118.03
2023-03-14T15:17:41.997Z,117.95
2023-03-14T15:18:41.993Z,117.29
2023-03-14T15:19:42.065Z,116.25
2023-03-14T15:20:42.097Z,116.05
2023-03-14T15:21:42.135Z,115.56
2023-03-14T15:22:42.179Z,114.87
2023-03-14T15:23:42.242Z,114.79
2023-03-14T15:24:42.282Z,115.06
2023-03-14T15:25:55.134Z,114.29
2023-03-14T15:26:43.305Z,114.36
2023-03-14T15:27:42.282Z,114.29
2023-03-14T15:28:42.300Z,113.79
2023-03-14T15:29:42.265Z,113.77
2023-03-14T15:30:42.250Z,114.36
2023-03-14T15:31:42.337Z,114.53
2023-03-14T15:32:42.283Z,114.13
2023-03-14T15:33:42.209Z,113.13
2023-03-14T15:34:42.215Z,110.39
2023-03-14T15:35:42.240Z,110.01
2023-03-14T15:36:42.186Z,111.08
2023-03-14T15:37:42.158Z,113.58
2023-03-14T15:38:42.165Z,110.66
2023-03-14T15:39:42.133Z,113.14
2023-03-14T15:40:42.134Z,115.05
2023-03-14T15:41:42.963Z,114.27
2023-03-14T15:42:42.102Z,109.39
2023-03-14T15:43:42.096Z,111.94
2023-03-14T15:44:42.100Z,113.18
2023-03-14T15:45:42.190Z,111.21
2023-03-14T15:46:42.069Z,110.86
2023-03-14T15:47:42.039Z,110.49
2023-03-14T15:48:42.035Z,111.63
2023-03-14T15:49:42.047Z,111.84
2023-03-14T15:50:42.010Z,112.06
2023-03-14T15:51:41.976Z,113.41
2023-03-14T15:52:41.949Z,111.62
2023-03-14T15:53:41.915Z,109.45
2023-03-14T15:54:41.880Z,110.37
2023-03-14T15:55:41.850Z,112.83
2023-03-14T15:56:41.818Z,112.55
2023-03-14T15:57:41.794Z,111.23
2023-03-14T15:58:41.785Z,111.20
2023-03-14T15:59:41.725Z,108.02
2023-03-14T16:40:40.815Z,110.63
2023-03-14T16:43:40.698Z,106.56
2023-03-14T18:18:41.019Z,93.97
2023-03-14T21:20:34.568Z,102.44
2023-03-14T21:21:34.536Z,102.59
2023-03-14T21:22:34.503Z,103.10
2023-03-14T21:23:34.487Z,102.74
2023-03-14T21:24:34.555Z,103.30
2023-03-14T21:25:34.428Z,101.92
2023-03-14T21:26:34.399Z,103.48
2023-03-14T21:27:34.374Z,103.45
2023-03-14T21:28:34.417Z,103.74
2023-03-14T21:29:34.331Z,103.79
2023-03-14T21:30:34.321Z,103.90
2023-03-14T21:31:34.341Z,103.26
2023-03-14T21:32:34.298Z,103.66
2023-03-14T21:33:34.224Z,103.86
2023-03-14T21:34:34.205Z,103.32
2023-03-14T21:35:34.217Z,103.62
2023-03-14T21:36:34.144Z,102.96
2023-03-14T21:37:34.122Z,103.11
2023-03-14T21:38:34.098Z,103.38
2023-03-14T21:39:34.095Z,104.09
2023-03-14T21:40:34.082Z,103.76
2023-03-14T21:41:34.034Z,103.46
2023-03-14T21:42:34.020Z,102.35
2023-03-14T21:43:33.980Z,103.31
2023-03-14T21:44:33.954Z,102.30
2023-03-14T21:45:33.922Z,102.86
2023-03-14T21:46:33.990Z,102.96
2023-03-14T21:47:33.893Z,102.98
2023-03-14T21:48:33.863Z,103.71
2023-03-14T21:49:33.833Z,103.94
2023-03-14T21:50:33.822Z,102.01
2023-03-14T21:51:33.794Z,103.40
2023-03-14T21:52:33.791Z,103.19
2023-03-14T21:53:33.758Z,102.52
2023-03-14T21:54:33.731Z,102.55
2023-03-14T21:55:33.694Z,101.63
2023-03-14T21:56:33.698Z,101.16
2023-03-14T21:57:33.660Z,100.11
2023-03-14T21:58:33.637Z,100.22
2023-03-14T21:59:33.627Z,101.30
2023-03-14T22:00:33.587Z,100.11
2023-03-14T22:01:33.603Z,99.76
2023-03-14T22:02:33.648Z,97.92
2023-03-14T22:03:33.559Z,99.64
2023-03-14T22:04:33.501Z,97.68
2023-03-14T22:05:33.476Z,96.26
2023-03-14T22:06:33.450Z,95.53
2023-03-14T22:07:33.440Z,95.55
2023-03-14T22:08:33.406Z,94.79
2023-03-14T22:09:33.375Z,94.63
2023-03-14T22:10:33.347Z,95.43
2023-03-14T22:11:33.324Z,95.08
2023-03-14T22:12:33.325Z,94.17
2023-03-14T22:13:33.273Z,94.58
2023-03-14T22:14:33.252Z,94.08
2023-03-14T22:15:33.242Z,95.11
2023-03-14T22:16:33.296Z,94.64
2023-03-14T22:17:33.226Z,94.24
2023-03-14T22:18:33.250Z,93.85
2023-03-14T22:19:33.189Z,93.64
2023-03-14T22:20:33.223Z,93.32
2023-03-14T22:21:33.198Z,92.18
2023-03-14T22:22:33.077Z,93.20
2023-03-14T22:23:33.023Z,93.38
2023-03-14T22:24:33.007Z,92.40
2023-03-14T22:25:32.972Z,91.47
2023-03-14T22:26:32.949Z,92.62
2023-03-14T22:27:32.957Z,93.01
2023-03-14T22:28:32.916Z,92.66
2023-03-14T22:29:32.925Z,91.63
2023-03-14T22:30:32.961Z,90.78
2023-03-14T22:31:32.998Z,90.50
2023-03-14T22:32:32.926Z,91.27
2023-03-14T22:33:32.859Z,91.27
2023-03-14T22:34:32.864Z,91.26
2023-03-14T22:35:32.787Z,90.59
2023-03-14T22:36:32.749Z,91.46
2023-03-14T22:37:32.752Z,89.49
2023-03-14T22:38:32.698Z,88.95
2023-03-14T22:39:32.667Z,89.22
2023-03-14T22:40:32.640Z,88.88
2023-03-14T22:41:32.618Z,88.88
2023-03-14T22:42:32.597Z,86.21
2023-03-14T22:43:32.571Z,87.24
2023-03-14T22:44:32.549Z,86.95
2023-03-14T22:45:32.531Z,85.40
2023-03-14T22:46:32.505Z,86.39
2023-03-14T22:47:32.516Z,86.37
2023-03-14T22:48:32.450Z,86.39
2023-03-14T22:49:32.446Z,85.97
2023-03-14T22:50:32.408Z,85.51
2023-03-14T22:51:32.386Z,85.49
2023-03-14T22:52:32.393Z,87.14
2023-03-14T22:53:32.322Z,85.87
2023-03-14T22:54:32.313Z,86.14
2023-03-14T22:55:32.276Z,83.68
2023-03-14T22:56:32.249Z,84.81
2023-03-14T22:57:32.276Z,84.20
2023-03-14T22:58:32.199Z,84.74
2023-03-14T22:59:32.180Z,81.77
2023-03-14T23:00:32.160Z,81.75
2023-03-14T23:01:32.134Z,83.32
2023-03-14T23:02:32.093Z,82.94
2023-03-14T23:03:32.064Z,82.58
2023-03-14T23:04:32.035Z,82.55
2023-03-14T23:05:32.000Z,82.88
2023-03-14T23:06:31.989Z,83.26
2023-03-14T23:07:31.960Z,82.24
2023-03-14T23:08:31.929Z,81.41
2023-03-14T23:09:31.900Z,80.94
2023-03-14T23:10:31.894Z,81.18
2023-03-14T23:11:31.840Z,81.15
2023-03-14T23:12:31.853Z,79.78
2023-03-14T23:13:31.914Z,79.30
2023-03-14T23:14:31.787Z,77.41
2023-03-14T23:15:31.782Z,76.42
2023-03-14T23:16:40.029Z,77.25
2023-03-14T23:17:32.703Z,77.31
